This is the latest recevied weather packets stored in our database for station/object N5XL. If no packets are shown the sender has not sent any weather packets the latest 10 day(s).
| Time | Temp. | Humidity | Pressure | Rain* | Wind** | Luminosity | Snow |
|---|---|---|---|---|---|---|---|
| 1777809244 | 22.78° C | 32% | 1011 hPa | 0 mm | - | 0 W/m² | - |
| 1777806543 | 22.22° C | 32% | 1011.2 hPa | 0 mm | - | 0 W/m² | - |
| 1777801504 | 22.22° C | 29% | 1010.9 hPa | 0 mm | - | 0 W/m² | - |
| 1777799883 | 22.78° C | 28% | 1011.1 hPa | 0 mm | - | 0 W/m² | - |
| 1777798804 | 22.78° C | 27% | 1011.2 hPa | 0 mm | - | 0 W/m² | - |
| 1777797364 | 23.33° C | 26% | 1011.2 hPa | 0 mm | - | 0 W/m² | - |
| 1777795204 | 23.89° C | 26% | 1011.3 hPa | 0 mm | - | 0 W/m² | - |
| 1777791604 | 24.44° C | 26% | 1011.3 hPa | 0 mm | - | 0 W/m² | - |
| 1777790724 | 24.44° C | 25% | 1011.5 hPa | 0 mm | - | 0 W/m² | - |
| 1777790163 | 24.44° C | 25% | 1011.1 hPa | 0 mm | - | 0 W/m² | - |
| 1777789623 | 25° C | 26% | 1011.1 hPa | 0 mm | - | 0 W/m² | - |
| 1777783503 | 28.33° C | 18% | 1010.6 hPa | 0 mm | - | 0 W/m² | - |
| 1777782963 | 28.33° C | 18% | 1010.5 hPa | 0 mm | - | 0 W/m² | - |
| 1777781344 | 28.33° C | 17% | 1010.2 hPa | 0 mm | - | 0 W/m² | - |
| 1777779904 | 28.89° C | 17% | 1009.8 hPa | 0 mm | - | 0 W/m² | - |
| 1777778823 | 29.44° C | 17% | 1009.8 hPa | 0 mm | - | 0 W/m² | - |
| 1777778283 | 29.44° C | 17% | 1009.6 hPa | 0 mm | - | 0 W/m² | - |
| 1777776843 | 30° C | 16% | 1009.5 hPa | 0 mm | - | 0 W/m² | - |
| 1777775244 | 30.56° C | 16% | 1009.4 hPa | 0 mm | - | 0 W/m² | - |
| 1777766403 | 33.33° C | 14% | 1009.8 hPa | 0 mm | - | 221 W/m² | - |
| 1777763343 | 33.89° C | 14% | 1010.1 hPa | 0 mm | - | 291 W/m² | - |
| 1777762804 | 33.89° C | 14% | 1010 hPa | 0 mm | - | 437 W/m² | - |
| 1777760823 | 34.44° C | 13% | 1010.7 hPa | 0 mm | - | 441 W/m² | - |
| 1777756165 | 34.44° C | 15% | 1011.7 hPa | 0 mm | - | 815 W/m² | - |
| 1777754164 | 33.89° C | 14% | 1012 hPa | 0 mm | - | 878 W/m² | - |
* Rain latest hour (hover to see other rain measurements)
** Current wind speed in m/s (hover to see current wind gust speed)